createdAt,value
2018-11-28T00:02:22.610Z,9.20
2018-11-28T00:04:50.190Z,9.03
2018-11-28T00:07:17.659Z,9.43
2018-11-28T00:09:45.119Z,9.20
2018-11-28T00:12:13.358Z,10.63
2018-11-28T00:14:40.847Z,9.53
2018-11-28T00:17:08.425Z,8.97
2018-11-28T00:19:35.881Z,8.30
2018-11-28T00:22:04.360Z,8.45
2018-11-28T00:24:31.825Z,8.73
2018-11-28T00:26:59.290Z,8.73
2018-11-28T00:29:26.772Z,8.83
2018-11-28T00:31:54.992Z,10.00
2018-11-28T00:34:22.486Z,9.17
2018-11-28T00:36:50.054Z,9.17
2018-11-28T00:39:17.525Z,9.37
2018-11-28T00:41:45.078Z,9.40
2018-11-28T00:44:12.539Z,9.90
2018-11-28T00:46:40.000Z,8.97
2018-11-28T00:49:07.462Z,9.40
2018-11-28T00:51:35.038Z,8.63
2018-11-28T00:54:02.521Z,9.43
2018-11-28T00:56:30.773Z,8.80
2018-11-28T00:58:58.256Z,8.60
2018-11-28T01:01:25.797Z,8.73
2018-11-28T01:03:53.357Z,9.20
2018-11-28T01:06:20.816Z,9.90
2018-11-28T01:08:48.295Z,8.37
2018-11-28T01:11:17.260Z,9.63
2018-11-28T01:13:44.849Z,9.87
2018-11-28T01:16:12.309Z,9.60
2018-11-28T01:18:39.789Z,8.93
2018-11-28T01:21:08.050Z,8.43
2018-11-28T01:23:35.535Z,9.73
2018-11-28T01:26:03.775Z,8.13
2018-11-28T01:28:31.351Z,9.53
2018-11-28T01:30:58.809Z,9.23
2018-11-28T01:33:26.382Z,9.47
2018-11-28T01:35:53.866Z,9.40
2018-11-28T01:38:22.093Z,9.07
2018-11-28T01:40:49.561Z,9.33
2018-11-28T01:43:17.021Z,9.23
2018-11-28T01:45:44.516Z,10.93
2018-11-28T01:48:13.507Z,9.10
2018-11-28T01:50:41.067Z,9.10
2018-11-28T01:53:08.841Z,9.83
2018-11-28T01:55:37.118Z,10.03
2018-11-28T01:58:04.682Z,9.30
2018-11-28T02:00:32.161Z,9.73
2018-11-28T02:02:59.627Z,8.90
2018-11-28T02:05:27.865Z,10.23
2018-11-28T02:07:55.322Z,9.47
2018-11-28T02:10:22.800Z,10.00
2018-11-28T02:12:50.253Z,9.33
2018-11-28T02:15:17.717Z,9.80
2018-11-28T02:17:45.313Z,8.87
2018-11-28T02:20:13.560Z,10.10
2018-11-28T02:22:41.135Z,9.83
2018-11-28T02:25:08.602Z,9.37
2018-11-28T02:27:36.094Z,8.83
2018-11-28T02:30:04.684Z,11.15
2018-11-28T02:32:32.986Z,9.53
2018-11-28T02:35:00.451Z,9.57
2018-11-28T02:37:27.954Z,9.10
2018-11-28T02:39:55.724Z,10.10
2018-11-28T02:42:23.192Z,10.10
2018-11-28T02:44:51.418Z,9.27
2018-11-28T02:47:18.900Z,10.00
2018-11-28T02:49:46.387Z,10.27
2018-11-28T02:52:13.847Z,9.20
2018-11-28T02:54:41.340Z,8.93
2018-11-28T02:57:09.589Z,10.00
2018-11-28T02:59:37.139Z,9.30
2018-11-28T03:02:04.603Z,8.87
2018-11-28T03:04:32.077Z,8.00
2018-11-28T03:06:59.560Z,10.13
2018-11-28T03:09:27.033Z,9.47
2018-11-28T03:11:55.265Z,9.70
2018-11-28T03:14:22.749Z,9.47
2018-11-28T03:16:50.230Z,10.10
2018-11-28T03:19:17.695Z,9.47
2018-11-28T03:21:45.923Z,10.40
2018-11-28T03:24:13.389Z,9.87
2018-11-28T03:26:40.876Z,9.50
2018-11-28T03:29:09.105Z,9.07
2018-11-28T03:31:36.626Z,8.40
2018-11-28T03:34:04.093Z,10.07
2018-11-28T03:36:31.576Z,10.27
2018-11-28T03:38:59.819Z,9.57
2018-11-28T03:41:27.280Z,9.30
2018-11-28T03:43:54.745Z,9.53
2018-11-28T03:46:22.203Z,9.67
2018-11-28T03:48:49.762Z,10.47
2018-11-28T03:51:18.743Z,10.13
2018-11-28T03:53:46.206Z,8.67
2018-11-28T03:56:13.681Z,10.47
2018-11-28T03:58:41.158Z,9.70
2018-11-28T04:01:08.625Z,9.70
2018-11-28T04:03:36.107Z,9.67
2018-11-28T04:06:04.560Z,9.82
2018-11-28T04:08:32.022Z,8.47
2018-11-28T04:11:01.015Z,9.77
2018-11-28T04:13:28.483Z,8.93
2018-11-28T04:15:55.973Z,9.87
2018-11-28T04:18:24.221Z,9.23
2018-11-28T04:20:51.689Z,9.53
2018-11-28T04:23:19.169Z,9.80
2018-11-28T04:25:47.421Z,9.63
2018-11-28T04:28:14.981Z,9.50
2018-11-28T04:30:42.448Z,9.13
2018-11-28T04:33:10.011Z,9.77
2018-11-28T04:35:37.587Z,10.17
2018-11-28T04:38:05.135Z,9.30
2018-11-28T04:40:32.718Z,9.60
2018-11-28T04:43:00.257Z,10.60
2018-11-28T04:45:27.731Z,9.07
2018-11-28T04:47:56.710Z,10.13
2018-11-28T04:50:24.184Z,9.73
2018-11-28T04:52:52.457Z,9.53
2018-11-28T04:55:20.034Z,9.00
2018-11-28T04:57:47.501Z,10.23
2018-11-28T05:00:17.546Z,10.17
2018-11-28T05:02:45.080Z,9.23
2018-11-28T05:05:14.083Z,9.90
2018-11-28T05:07:41.561Z,9.00
2018-11-28T05:10:09.783Z,9.93
2018-11-28T05:12:37.253Z,9.50
2018-11-28T05:15:04.710Z,9.07
2018-11-28T05:17:32.486Z,9.00
2018-11-28T05:19:59.961Z,9.60
2018-11-28T05:22:27.536Z,8.87
2018-11-28T05:24:55.099Z,8.93
2018-11-28T05:27:22.594Z,9.07
2018-11-28T05:29:50.844Z,9.57
2018-11-28T05:32:18.307Z,9.80
2018-11-28T05:34:45.810Z,9.60
2018-11-28T05:37:13.279Z,10.00
2018-11-28T05:39:40.788Z,9.60
2018-11-28T05:42:08.357Z,10.47
2018-11-28T05:44:36.593Z,10.03
2018-11-28T05:47:04.047Z,9.17
2018-11-28T05:49:31.523Z,9.33
2018-11-28T05:51:59.064Z,9.87
2018-11-28T05:54:26.525Z,9.30
2018-11-28T05:56:54.010Z,8.40
2018-11-28T05:59:27.096Z,10.67
2018-11-28T06:01:48.961Z,10.30
2018-11-28T06:04:16.779Z,9.37
2018-11-28T06:06:44.244Z,9.93
2018-11-28T06:09:11.761Z,9.47
2018-11-28T06:11:39.314Z,9.23
2018-11-28T06:14:06.787Z,10.67
2018-11-28T06:16:34.246Z,9.50
2018-11-28T06:19:01.807Z,9.57
2018-11-28T06:21:29.262Z,9.93
2018-11-28T06:23:56.737Z,10.43
2018-11-28T06:26:24.206Z,9.63
2018-11-28T06:28:51.778Z,9.37
2018-11-28T06:31:19.318Z,9.77
2018-11-28T06:33:46.802Z,9.57
2018-11-28T06:36:14.274Z,8.80
2018-11-28T06:38:42.527Z,10.63
2018-11-28T06:41:10.091Z,9.55
2018-11-28T06:43:37.649Z,9.93
2018-11-28T06:46:05.129Z,9.40
2018-11-28T06:48:32.587Z,9.80
2018-11-28T06:51:00.062Z,9.97
2018-11-28T06:53:28.302Z,9.77
2018-11-28T06:55:55.784Z,8.93
2018-11-28T06:58:23.246Z,9.30
2018-11-28T07:00:51.503Z,9.33
2018-11-28T07:03:18.983Z,10.57
2018-11-28T07:05:46.447Z,9.00
2018-11-28T07:08:14.679Z,9.83
2018-11-28T07:10:42.314Z,9.90
2018-11-28T07:13:10.562Z,11.50
2018-11-28T07:15:38.030Z,9.97
2018-11-28T07:21:15.935Z,15.25
2018-11-28T07:23:43.392Z,12.47
2018-11-28T07:26:10.858Z,10.93
2018-11-28T07:28:38.423Z,11.33
2018-11-28T07:31:05.899Z,9.43
2018-11-28T07:33:33.357Z,10.17
2018-11-28T07:36:00.811Z,9.93
2018-11-28T07:38:28.294Z,10.20
2018-11-28T07:40:56.569Z,9.87
2018-11-28T07:43:25.135Z,9.80
2018-11-28T07:45:52.588Z,10.00
2018-11-28T07:48:20.039Z,9.10
2018-11-28T07:50:47.665Z,9.10
2018-11-28T07:53:15.130Z,9.63
2018-11-28T07:55:43.468Z,9.33
2018-11-28T07:58:11.035Z,11.03
2018-11-28T08:00:38.495Z,9.63
2018-11-28T08:03:07.467Z,8.83
2018-11-28T08:05:35.048Z,9.27
2018-11-28T08:08:02.623Z,9.80
2018-11-28T08:10:30.174Z,8.83
2018-11-28T08:12:57.653Z,9.50
2018-11-28T08:15:25.111Z,9.43
2018-11-28T08:17:52.679Z,8.40
2018-11-28T08:20:20.241Z,8.97
2018-11-28T08:22:47.959Z,9.97
2018-11-28T08:25:15.419Z,10.03
2018-11-28T08:27:42.971Z,9.73
2018-11-28T08:30:10.401Z,10.73
2018-11-28T08:32:38.634Z,8.63
2018-11-28T08:35:06.085Z,9.77
2018-11-28T08:37:33.558Z,9.27
2018-11-28T08:40:01.020Z,9.53
2018-11-28T08:42:28.480Z,9.67
2018-11-28T08:44:55.999Z,8.80
2018-11-28T08:47:23.445Z,9.23
2018-11-28T08:49:51.007Z,9.57
2018-11-28T08:52:18.478Z,9.77
2018-11-28T08:54:45.995Z,9.57
2018-11-28T08:57:13.493Z,9.20
2018-11-28T08:59:41.771Z,8.97
2018-11-28T09:02:09.244Z,10.20
2018-11-28T09:04:36.717Z,10.50
2018-11-28T09:07:04.941Z,8.97
2018-11-28T09:09:32.402Z,9.50
2018-11-28T09:11:59.913Z,9.70
2018-11-28T09:14:27.370Z,9.43
2018-11-28T09:16:54.835Z,9.17
2018-11-28T09:19:23.054Z,9.40
2018-11-28T09:21:50.534Z,8.47
2018-11-28T09:24:17.989Z,9.90
2018-11-28T09:26:45.453Z,8.97
2018-11-28T09:29:12.939Z,9.90
2018-11-28T09:31:40.411Z,8.97
2018-11-28T09:34:07.878Z,8.60
2018-11-28T09:36:35.430Z,9.60
2018-11-28T09:39:03.813Z,9.00
2018-11-28T09:41:31.277Z,9.17
2018-11-28T09:43:58.751Z,9.00
2018-11-28T09:46:26.214Z,8.90
2018-11-28T09:48:53.665Z,9.47
2018-11-28T09:51:21.913Z,8.90
2018-11-28T09:53:49.361Z,8.10
2018-11-28T09:56:16.862Z,8.03
2018-11-28T09:58:44.426Z,9.53
2018-11-28T10:01:11.879Z,8.60
2018-11-28T10:03:39.345Z,7.80
2018-11-28T10:06:06.820Z,8.43
2018-11-28T10:08:34.381Z,8.93
2018-11-28T10:11:04.599Z,8.57
2018-11-28T10:13:32.065Z,8.17
2018-11-28T10:16:00.217Z,8.77
2018-11-28T10:18:28.124Z,9.03
2018-11-28T10:20:55.589Z,9.07
2018-11-28T10:23:23.061Z,8.73
2018-11-28T10:25:51.430Z,7.93
2018-11-28T10:28:18.898Z,8.63
2018-11-28T10:30:46.366Z,9.13
2018-11-28T10:33:13.843Z,7.97
2018-11-28T10:35:42.073Z,7.67
2018-11-28T10:38:09.608Z,7.40
2018-11-28T10:40:37.806Z,7.97
2018-11-28T10:43:05.282Z,8.57
2018-11-28T10:45:32.754Z,8.13
2018-11-28T10:48:00.210Z,7.87
2018-11-28T10:50:27.681Z,7.77
2018-11-28T10:52:55.166Z,7.80
2018-11-28T10:55:23.427Z,7.60
2018-11-28T10:57:50.885Z,7.47
2018-11-28T11:00:18.491Z,9.00
2018-11-28T11:02:45.980Z,10.80
2018-11-28T11:05:13.439Z,8.33
2018-11-28T11:10:50.045Z,11.60
2018-11-28T11:13:17.500Z,9.57
2018-11-28T11:15:44.974Z,7.90
2018-11-28T11:18:12.437Z,7.30
2018-11-28T11:20:41.421Z,6.97
2018-11-28T11:23:08.894Z,7.33
2018-11-28T11:25:36.449Z,7.40
2018-11-28T11:28:04.801Z,7.57
2018-11-28T11:30:32.272Z,7.90
2018-11-28T11:32:59.739Z,6.57
2018-11-28T11:35:27.327Z,6.33
2018-11-28T11:37:54.879Z,6.93
2018-11-28T11:40:22.448Z,7.20
2018-11-28T11:42:50.065Z,7.27
2018-11-28T11:45:18.348Z,7.73
2018-11-28T11:47:45.819Z,7.10
2018-11-28T11:50:13.284Z,6.97
2018-11-28T11:52:40.767Z,7.27
2018-11-28T11:55:08.256Z,6.63
2018-11-28T11:57:35.722Z,7.43
2018-11-28T12:00:04.706Z,6.85
2018-11-28T12:02:32.261Z,6.33
2018-11-28T12:04:59.824Z,6.07
2018-11-28T12:07:27.389Z,6.83
2018-11-28T12:09:54.849Z,6.77
2018-11-28T12:12:22.309Z,6.80
2018-11-28T12:14:49.789Z,6.97
2018-11-28T12:17:18.061Z,6.73
2018-11-28T12:19:45.518Z,6.87
2018-11-28T12:22:12.975Z,6.57
2018-11-28T12:24:40.442Z,7.40
2018-11-28T12:27:10.747Z,6.97
2018-11-28T12:29:38.226Z,6.77
2018-11-28T12:32:07.261Z,6.80
2018-11-28T12:34:33.422Z,6.80
2018-11-28T12:37:00.721Z,6.53
2018-11-28T12:39:28.186Z,6.50
2018-11-28T12:41:55.662Z,6.53
2018-11-28T12:44:23.136Z,6.07
2018-11-28T12:46:51.367Z,6.37
2018-11-28T12:49:18.835Z,6.07
2018-11-28T12:51:46.302Z,9.68
2018-11-28T12:54:13.773Z,7.93
2018-11-28T12:56:41.242Z,7.13
2018-11-28T12:59:10.201Z,6.97
2018-11-28T13:04:12.524Z,7.10
2018-11-28T13:06:40.023Z,6.03
2018-11-28T13:09:08.116Z,6.93
2018-11-28T13:11:35.610Z,6.47
2018-11-28T13:14:04.494Z,7.30
2018-11-28T13:16:31.958Z,6.77
2018-11-28T13:18:59.587Z,5.83
2018-11-28T13:21:27.064Z,6.57
2018-11-28T13:23:54.559Z,6.07
2018-11-28T13:26:22.030Z,6.37
2018-11-28T13:28:49.497Z,6.40
2018-11-28T13:31:17.260Z,6.47
2018-11-28T13:33:44.721Z,6.43
2018-11-28T13:36:12.175Z,6.32
2018-11-28T13:38:39.739Z,5.97
2018-11-28T13:41:07.305Z,6.30
2018-11-28T13:43:35.084Z,5.50
2018-11-28T13:46:07.182Z,5.30
2018-11-28T13:48:31.710Z,6.30
2018-11-28T13:50:59.189Z,5.33
2018-11-28T13:53:26.654Z,5.83
2018-11-28T13:56:57.291Z,4.93
2018-11-28T13:58:22.782Z,5.30
2018-11-28T14:00:50.274Z,5.87
2018-11-28T14:03:17.732Z,5.80
2018-11-28T14:05:46.735Z,5.37
2018-11-28T14:08:14.291Z,5.80
2018-11-28T14:10:41.865Z,5.30
2018-11-28T14:13:10.129Z,5.30
2018-11-28T14:15:37.599Z,5.53
2018-11-28T14:18:05.067Z,4.43
2018-11-28T14:20:32.534Z,4.97
2018-11-28T14:23:00.003Z,5.53
2018-11-28T14:25:27.634Z,5.27
2018-11-28T14:27:55.707Z,5.23
2018-11-28T14:30:23.182Z,5.00
2018-11-28T14:32:50.804Z,5.03
2018-11-28T14:35:18.317Z,5.43
2018-11-28T14:37:45.897Z,4.90
2018-11-28T14:40:13.441Z,4.67
2018-11-28T14:42:41.010Z,4.67
2018-11-28T14:45:08.477Z,4.97
2018-11-28T14:47:35.941Z,4.27
2018-11-28T14:50:03.913Z,4.97
2018-11-28T14:52:32.205Z,4.20
2018-11-28T14:54:59.709Z,4.27
2018-11-28T14:57:27.169Z,4.40
2018-11-28T14:59:54.635Z,5.00
2018-11-28T15:02:22.100Z,4.63
2018-11-28T15:04:49.577Z,4.68
2018-11-28T15:07:17.037Z,4.37
2018-11-28T15:09:44.503Z,4.30
2018-11-28T15:12:11.966Z,4.77
2018-11-28T15:14:39.449Z,4.63
2018-11-28T15:17:06.915Z,4.40
2018-11-28T15:19:34.375Z,4.43
2018-11-28T15:22:01.925Z,4.60
2018-11-28T15:24:29.395Z,4.70
2018-11-28T15:26:56.957Z,4.50
2018-11-28T15:29:24.431Z,4.67
2018-11-28T15:31:51.894Z,4.77
2018-11-28T15:34:19.450Z,5.03
2018-11-28T15:36:46.935Z,5.20
2018-11-28T15:39:15.162Z,4.60
2018-11-28T15:41:42.626Z,4.10
2018-11-28T15:44:10.110Z,4.40
2018-11-28T15:46:37.670Z,4.13
2018-11-28T15:49:05.239Z,4.70
2018-11-28T15:51:32.801Z,4.30
2018-11-28T15:54:00.259Z,3.93
2018-11-28T15:56:27.730Z,4.33
2018-11-28T15:58:55.187Z,4.17
2018-11-28T16:01:22.749Z,4.57
2018-11-28T16:03:50.310Z,4.30
2018-11-28T16:06:17.902Z,4.73
2018-11-28T16:08:45.455Z,4.50
2018-11-28T16:11:12.998Z,4.70
2018-11-28T16:13:40.460Z,4.80
2018-11-28T16:16:07.923Z,5.07
2018-11-28T16:18:36.742Z,4.63
2018-11-28T16:21:04.972Z,4.80
2018-11-28T16:23:32.452Z,4.53
2018-11-28T16:25:59.915Z,4.50
2018-11-28T16:28:27.389Z,4.53
2018-11-28T16:30:54.849Z,4.80
2018-11-28T16:33:22.316Z,4.70
2018-11-28T16:35:50.588Z,4.63
2018-11-28T16:38:18.064Z,4.87
2018-11-28T16:40:46.334Z,4.63
2018-11-28T16:43:13.909Z,5.13
2018-11-28T16:45:41.933Z,4.97
2018-11-28T16:48:09.641Z,5.50
2018-11-28T16:50:37.094Z,5.10
2018-11-28T16:53:04.551Z,5.20
2018-11-28T16:55:32.013Z,4.70
2018-11-28T16:57:59.465Z,6.33
2018-11-28T17:00:26.924Z,5.20
2018-11-28T17:02:54.379Z,5.03
2018-11-28T17:05:21.829Z,5.17
2018-11-28T17:07:49.293Z,7.10
2018-11-28T17:10:16.778Z,5.87
2018-11-28T17:12:44.235Z,6.43
2018-11-28T17:15:11.725Z,6.30
2018-11-28T17:17:39.216Z,6.17
2018-11-28T17:20:07.437Z,6.53
2018-11-28T17:22:34.919Z,6.57
2018-11-28T17:25:02.482Z,6.33
2018-11-28T17:27:29.937Z,5.37
2018-11-28T17:29:57.435Z,6.67
2018-11-28T17:32:25.185Z,6.67
2018-11-28T17:34:52.660Z,7.43
2018-11-28T17:37:20.118Z,6.03
2018-11-28T17:39:47.584Z,6.87
2018-11-28T17:42:15.053Z,7.00
2018-11-28T17:44:43.278Z,5.57
2018-11-28T17:47:10.733Z,6.47
2018-11-28T17:49:38.230Z,6.87
2018-11-28T17:52:05.793Z,6.63
2018-11-28T17:54:33.364Z,6.40
2018-11-28T17:57:00.822Z,7.10
2018-11-28T17:59:28.389Z,6.53
2018-11-28T18:01:55.895Z,6.13
2018-11-28T18:04:23.359Z,7.00
2018-11-28T18:06:50.877Z,6.93
2018-11-28T18:09:18.344Z,6.20
2018-11-28T18:11:45.895Z,6.90
2018-11-28T18:14:13.724Z,7.03
2018-11-28T18:16:41.246Z,7.20
2018-11-28T18:19:09.482Z,6.63
2018-11-28T18:21:36.933Z,6.57
2018-11-28T18:24:04.432Z,7.37
2018-11-28T18:26:31.894Z,6.83
2018-11-28T18:28:59.461Z,6.20
2018-11-28T18:31:27.691Z,6.63
2018-11-28T18:33:55.154Z,6.20
2018-11-28T18:36:22.623Z,6.03
2018-11-28T18:38:50.089Z,6.30
2018-11-28T18:41:17.538Z,5.80
2018-11-28T18:43:45.100Z,5.37
2018-11-28T18:46:12.562Z,5.27
2018-11-28T18:48:40.083Z,6.20
2018-11-28T18:51:07.555Z,6.80
2018-11-28T18:53:35.060Z,6.53
2018-11-28T18:56:04.210Z,6.50
2018-11-28T18:58:31.770Z,5.63
2018-11-28T19:00:59.992Z,5.90
2018-11-28T19:03:27.454Z,5.53
2018-11-28T19:05:54.970Z,6.13
2018-11-28T19:08:22.422Z,6.13
2018-11-28T19:10:50.002Z,6.67
2018-11-28T19:13:18.174Z,6.23
2018-11-28T19:15:45.816Z,5.83
2018-11-28T19:18:13.297Z,5.85
2018-11-28T19:20:41.061Z,6.03
2018-11-28T19:23:08.513Z,6.43
2018-11-28T19:25:35.982Z,7.03
2018-11-28T19:28:03.979Z,6.43
2018-11-28T19:30:32.251Z,7.17
2018-11-28T19:32:59.718Z,6.07
2018-11-28T19:35:27.952Z,6.20
2018-11-28T19:37:55.402Z,6.97
2018-11-28T19:40:22.875Z,6.10
2018-11-28T19:42:50.369Z,6.97
2018-11-28T19:45:17.907Z,7.00
2018-11-28T19:47:45.401Z,7.30
2018-11-28T19:50:12.937Z,7.03
2018-11-28T19:52:40.406Z,7.37
2018-11-28T19:55:07.883Z,6.63
2018-11-28T19:57:35.450Z,7.43
2018-11-28T20:00:03.900Z,7.43
2018-11-28T20:02:31.401Z,7.00
2018-11-28T20:05:00.390Z,8.57
2018-11-28T20:07:27.858Z,8.13
2018-11-28T20:09:55.311Z,8.20
2018-11-28T20:12:22.784Z,8.90
2018-11-28T20:14:50.246Z,8.60
2018-11-28T20:17:17.804Z,6.90
2018-11-28T20:19:45.375Z,7.70
2018-11-28T20:22:12.931Z,7.73
2018-11-28T20:24:40.497Z,7.93
2018-11-28T20:27:07.966Z,8.13
2018-11-28T20:29:35.425Z,7.43
2018-11-28T20:32:03.849Z,8.73
2018-11-28T20:34:31.376Z,6.80
2018-11-28T20:36:58.834Z,7.73
2018-11-28T20:39:27.802Z,7.47
2018-11-28T20:41:55.604Z,8.03
2018-11-28T20:44:23.064Z,7.60
2018-11-28T20:46:51.298Z,8.10
2018-11-28T20:49:19.104Z,8.37
2018-11-28T20:51:46.575Z,7.90
2018-11-28T20:54:14.036Z,8.15
2018-11-28T20:56:41.513Z,6.93
2018-11-28T20:59:09.742Z,7.63
2018-11-28T21:01:37.198Z,7.70
2018-11-28T21:04:04.666Z,8.77
2018-11-28T21:06:32.165Z,7.37
2018-11-28T21:08:59.642Z,7.40
2018-11-28T21:11:28.134Z,7.90
2018-11-28T21:13:56.366Z,8.13
2018-11-28T21:16:24.682Z,7.07
2018-11-28T21:18:52.223Z,7.67
2018-11-28T21:21:19.690Z,7.33
2018-11-28T21:23:47.150Z,7.73
2018-11-28T21:26:14.625Z,8.13
2018-11-28T21:28:42.103Z,7.63
2018-11-28T21:31:09.637Z,7.60
2018-11-28T21:33:37.202Z,7.67
2018-11-28T21:36:04.670Z,7.27
2018-11-28T21:38:32.134Z,6.87
2018-11-28T21:41:00.373Z,7.47
2018-11-28T21:43:27.841Z,7.70
2018-11-28T21:45:55.384Z,7.93
2018-11-28T21:48:22.839Z,8.00
2018-11-28T21:50:50.306Z,7.57
2018-11-28T21:53:17.812Z,6.97
2018-11-28T21:55:45.333Z,8.40
2018-11-28T21:58:12.851Z,7.97
2018-11-28T22:00:40.305Z,7.70
2018-11-28T22:03:07.875Z,7.57
2018-11-28T22:05:35.336Z,7.60
2018-11-28T22:08:02.901Z,7.47
2018-11-28T22:10:30.364Z,8.10
2018-11-28T22:12:57.918Z,9.20
2018-11-28T22:15:25.373Z,8.33
2018-11-28T22:17:52.835Z,7.57
2018-11-28T22:20:20.402Z,8.50
2018-11-28T22:22:47.981Z,8.77
2018-11-28T22:25:15.443Z,8.90
2018-11-28T22:27:42.917Z,9.03
2018-11-28T22:30:10.370Z,9.70
2018-11-28T22:32:37.838Z,8.47
2018-11-28T22:35:05.385Z,8.53
2018-11-28T22:37:32.851Z,8.50
2018-11-28T22:40:00.306Z,7.57
2018-11-28T22:42:27.778Z,8.80
2018-11-28T22:44:55.232Z,9.50
2018-11-28T22:47:22.802Z,8.90
2018-11-28T22:49:50.267Z,10.27
2018-11-28T22:52:18.493Z,8.53
2018-11-28T22:54:45.962Z,8.10
2018-11-28T22:57:13.420Z,9.67
2018-11-28T22:59:40.885Z,8.53
2018-11-28T23:02:20.077Z,9.47
2018-11-28T23:04:47.550Z,8.03
2018-11-28T23:07:15.806Z,7.33
2018-11-28T23:09:43.278Z,8.03
2018-11-28T23:12:10.830Z,7.67
2018-11-28T23:14:38.303Z,8.13
2018-11-28T23:17:05.845Z,8.27
2018-11-28T23:19:33.410Z,8.23
2018-11-28T23:22:00.868Z,7.40
2018-11-28T23:24:28.431Z,7.63
2018-11-28T23:26:56.005Z,7.37
2018-11-28T23:29:23.490Z,7.67
2018-11-28T23:31:51.726Z,7.67
2018-11-28T23:34:19.198Z,7.70
2018-11-28T23:36:46.665Z,7.23
2018-11-28T23:39:14.237Z,6.60
2018-11-28T23:41:41.694Z,7.93
2018-11-28T23:44:09.155Z,7.40
2018-11-28T23:46:36.625Z,6.87
2018-11-28T23:49:04.182Z,7.70
2018-11-28T23:51:31.633Z,7.33
2018-11-28T23:53:59.203Z,6.70
2018-11-28T23:56:26.674Z,6.87
2018-11-28T23:58:54.131Z,6.43
